M/T Vemaoil Xi — 9HWD7 — position and weather

sailwx.info

Track history (hours):
 
Tides and Currents Weather Stations Pressure Air Temp Water Temp Dewpoint Dewpoint Depression Visibility Wind Speed Wind Dir Waves Ship Positions

M/T Vemaoil Xi

Last reported at 2016-May-05 05:30 UTC. Time now 2016-May-05 16:05 UTC.
Position N 35°49' E 014°33'.

Length 105 m; draft 6.6 m.

Type: Tanker. MMSI: 215631000.

Date/timePositionNaut miles runAvg speedWind from/ knotsBaromVisibWave heightAir tempDewpointWater temp
2016-May-05 05:30N 35°49' E 014°33'2 0.0
2016-May-03 06:13N 35°49' E 014°35'1 0.1
2016-May-02 17:25N 35°49' E 014°35'1 0.0
2016-May-01 14:28N 35°49' E 014°35'5 5.2
2016-May-01 13:33N 35°51' E 014°40'4 3.6
2016-May-01 12:22N 35°53' E 014°45'0 0.0
2016-May-01 11:31N 35°53' E 014°45'0 0.0
2016-May-01 10:31N 35°53' E 014°45'0 0.0
2016-May-01 09:31N 35°53' E 014°45'0 0.0
2016-May-01 08:25N 35°53' E 014°45'0 0.2
2016-May-01 07:33N 35°53' E 014°45'2 2.0
2016-May-01 06:31N 35°55' E 014°47'0 0.0
2016-May-01 05:33N 35°55' E 014°47'0 0.0
2016-May-01 04:34N 35°55' E 014°47'0 0.0
2016-May-01 03:33N 35°55' E 014°47'0 0.0
2016-May-01 02:33N 35°55' E 014°47'0 0.1
2016-May-01 01:33N 35°55' E 014°47'0 0.0
2016-May-01 00:34N 35°55' E 014°47'0 0.0
2016-Apr-30 23:34N 35°55' E 014°47'0 0.0
2016-Apr-30 22:33N 35°55' E 014°47'0 0.0
2016-Apr-30 21:33N 35°55' E 014°47'0 0.3
2016-Apr-30 20:34N 35°55' E 014°46'6 6.0
2016-Apr-30 19:33N 35°51' E 014°40'7 5.5
2016-Apr-30 18:19N 35°47' E 014°34'4 5.3
2016-Apr-30 17:34N 35°46' E 014°29'6 5.8
2016-Apr-30 16:33N 35°48' E 014°22'6 6.2
2016-Apr-30 15:34N 35°53' E 014°18'5 4.7
2016-Apr-30 14:34N 35°57' E 014°19'0 0.1
2016-Apr-30 13:33N 35°57' E 014°19'0 0.0
2016-Apr-30 12:33N 35°57' E 014°19'0 0.0
2016-Apr-30 11:33N 35°57' E 014°19'0 0.0
2016-Apr-30 10:33N 35°57' E 014°19'0 0.0
2016-Apr-30 09:33N 35°57' E 014°19'0 0.0
2016-Apr-30 08:33N 35°57' E 014°19'0 0.0
2016-Apr-30 07:33N 35°57' E 014°19'0 0.1
2016-Apr-30 06:33N 35°57' E 014°19'0 0.0
2016-Apr-30 05:33N 35°57' E 014°20'0 0.1
2016-Apr-30 04:33N 35°57' E 014°20'0 0.0
2016-Apr-30 03:33N 35°57' E 014°20'0 0.0
2016-Apr-30 02:33N 35°57' E 014°20'0 0.0
2016-Apr-30 01:33N 35°57' E 014°20'0 0.0
2016-Apr-30 00:34N 35°57' E 014°20'0 0.1
2016-Apr-29 23:33N 35°57' E 014°20'0 0.0
2016-Apr-29 22:33N 35°57' E 014°20'0 0.0
2016-Apr-29 21:33N 35°57' E 014°20'0 0.0
2016-Apr-29 20:33N 35°57' E 014°20'0 0.1
2016-Apr-29 19:33N 35°58' E 014°19'1 1.0
2016-Apr-29 18:33N 35°58' E 014°18'0 0.1
2016-Apr-29 17:33N 35°58' E 014°18'1 0.8
2016-Apr-29 16:33N 35°58' E 014°17'1 0.7
2016-Apr-29 15:33N 35°57' E 014°17'0 0.4
2016-Apr-29 14:34N 35°58' E 014°18'1 1.4
2016-Apr-29 13:33N 35°58' E 014°19'1 0.6
2016-Apr-29 12:33N 35°57' E 014°19'0 0.0
2016-Apr-29 11:33N 35°57' E 014°19'0 0.0
2016-Apr-29 10:33N 35°57' E 014°19'0 0.0
2016-Apr-29 09:33N 35°57' E 014°19'1 1.3
2016-Apr-29 08:33N 35°56' E 014°18'6 5.6
2016-Apr-29 07:33N 35°51' E 014°20'6 5.7
2016-Apr-29 06:33N 35°46' E 014°23'7 6.9
2016-Apr-29 05:28N 35°46' E 014°33'3 3.3
2016-Apr-29 04:29N 35°49' E 014°35'1 0.1
2016-Apr-28 18:18N 35°48' E 014°34'1 0.7
2016-Apr-28 17:33N 35°49' E 014°34'5 5.1
2016-Apr-28 16:33N 35°54' E 014°34'3 0.3
2016-Apr-28 06:30N 35°53' E 014°30'3 2.8
2016-Apr-28 05:34N 35°55' E 014°33'3 3.1
2016-Apr-28 04:34N 35°53' E 014°36'3 2.7
2016-Apr-28 03:34N 35°50' E 014°35'0 0.0
2016-Apr-28 02:31N 35°50' E 014°36'0 0.0
2016-Apr-28 01:34N 35°50' E 014°36'0 0.0
2016-Apr-28 00:34N 35°50' E 014°36'0 0.0
2016-Apr-27 23:34N 35°50' E 014°36'0 0.0
2016-Apr-27 22:33N 35°50' E 014°36'0 0.0
2016-Apr-27 21:33N 35°50' E 014°36'0 0.0
2016-Apr-27 20:31N 35°50' E 014°36'0 0.0
2016-Apr-27 19:26N 35°50' E 014°36'0 0.0
2016-Apr-27 18:31N 35°50' E 014°36'0 0.0
2016-Apr-27 15:16N 35°50' E 014°36'0 0.0
2016-Apr-27 14:21N 35°50' E 014°36'0 0.0
2016-Apr-27 13:11N 35°50' E 014°36'0 0.0
2016-Apr-27 12:15N 35°50' E 014°36'0 0.0
2016-Apr-27 11:32N 35°50' E 014°36'0 0.0
2016-Apr-27 10:31N 35°50' E 014°36'0 0.0
2016-Apr-27 09:31N 35°50' E 014°36'0 0.0
2016-Apr-27 08:33N 35°50' E 014°36'0 0.0
2016-Apr-27 07:33N 35°50' E 014°36'0 0.0
2016-Apr-27 06:33N 35°50' E 014°36'4 3.4
2016-Apr-27 05:20N 35°51' E 014°41'3 4.4
2016-Apr-27 04:33N 35°52' E 014°45'0 0.0
2016-Apr-27 03:33N 35°52' E 014°45'0 0.0
2016-Apr-27 02:31N 35°52' E 014°45'0 0.1
2016-Apr-27 01:33N 35°52' E 014°45'4 1.5
2016-Apr-26 23:05N 35°54' E 014°49'0 0.0
2016-Apr-26 22:27N 35°54' E 014°49'0 0.0
2016-Apr-26 21:25N 35°54' E 014°49'0 0.0
2016-Apr-26 20:22N 35°54' E 014°49'0 0.0
2016-Apr-26 16:16N 35°54' E 014°49'0 0.0
2016-Apr-26 15:18N 35°54' E 014°49'0 0.0
2016-Apr-26 14:25N 35°54' E 014°49'4 0.9
2016-Apr-26 09:21N 35°51' E 014°45'  
Track history (hours):
 
Tides and Currents Weather Stations Pressure Air Temp Water Temp Dewpoint Dewpoint Depression Visibility Wind Speed Wind Dir Waves Ship Positions

M/T Vemaoil Xi

Last reported at 2016-May-05 05:30 UTC. Time now 2016-May-05 16:05 UTC.
Position N 35°49' E 014°33'.

Length 105 m; draft 6.6 m.

Type: Tanker. MMSI: 215631000.

Date/timePositionNaut miles runAvg speedWind from/ knotsBaromVisibWave heightAir tempDewpointWater temp
2016-May-05 05:30N 35°49' E 014°33'2 0.0
2016-May-03 06:13N 35°49' E 014°35'1 0.1
2016-May-02 17:25N 35°49' E 014°35'1 0.0
2016-May-01 14:28N 35°49' E 014°35'5 5.2
2016-May-01 13:33N 35°51' E 014°40'4 3.6
2016-May-01 12:22N 35°53' E 014°45'0 0.0
2016-May-01 11:31N 35°53' E 014°45'0 0.0
2016-May-01 10:31N 35°53' E 014°45'0 0.0
2016-May-01 09:31N 35°53' E 014°45'0 0.0
2016-May-01 08:25N 35°53' E 014°45'0 0.2
2016-May-01 07:33N 35°53' E 014°45'2 2.0
2016-May-01 06:31N 35°55' E 014°47'0 0.0
2016-May-01 05:33N 35°55' E 014°47'0 0.0
2016-May-01 04:34N 35°55' E 014°47'0 0.0
2016-May-01 03:33N 35°55' E 014°47'0 0.0
2016-May-01 02:33N 35°55' E 014°47'0 0.1
2016-May-01 01:33N 35°55' E 014°47'0 0.0
2016-May-01 00:34N 35°55' E 014°47'0 0.0
2016-Apr-30 23:34N 35°55' E 014°47'0 0.0
2016-Apr-30 22:33N 35°55' E 014°47'0 0.0
2016-Apr-30 21:33N 35°55' E 014°47'0 0.3
2016-Apr-30 20:34N 35°55' E 014°46'6 6.0
2016-Apr-30 19:33N 35°51' E 014°40'7 5.5
2016-Apr-30 18:19N 35°47' E 014°34'4 5.3
2016-Apr-30 17:34N 35°46' E 014°29'6 5.8
2016-Apr-30 16:33N 35°48' E 014°22'6 6.2
2016-Apr-30 15:34N 35°53' E 014°18'5 4.7
2016-Apr-30 14:34N 35°57' E 014°19'0 0.1
2016-Apr-30 13:33N 35°57' E 014°19'0 0.0
2016-Apr-30 12:33N 35°57' E 014°19'0 0.0
2016-Apr-30 11:33N 35°57' E 014°19'0 0.0
2016-Apr-30 10:33N 35°57' E 014°19'0 0.0
2016-Apr-30 09:33N 35°57' E 014°19'0 0.0
2016-Apr-30 08:33N 35°57' E 014°19'0 0.0
2016-Apr-30 07:33N 35°57' E 014°19'0 0.1
2016-Apr-30 06:33N 35°57' E 014°19'0 0.0
2016-Apr-30 05:33N 35°57' E 014°20'0 0.1
2016-Apr-30 04:33N 35°57' E 014°20'0 0.0
2016-Apr-30 03:33N 35°57' E 014°20'0 0.0
2016-Apr-30 02:33N 35°57' E 014°20'0 0.0
2016-Apr-30 01:33N 35°57' E 014°20'0 0.0
2016-Apr-30 00:34N 35°57' E 014°20'0 0.1
2016-Apr-29 23:33N 35°57' E 014°20'0 0.0
2016-Apr-29 22:33N 35°57' E 014°20'0 0.0
2016-Apr-29 21:33N 35°57' E 014°20'0 0.0
2016-Apr-29 20:33N 35°57' E 014°20'0 0.1
2016-Apr-29 19:33N 35°58' E 014°19'1 1.0
2016-Apr-29 18:33N 35°58' E 014°18'0 0.1
2016-Apr-29 17:33N 35°58' E 014°18'1 0.8
2016-Apr-29 16:33N 35°58' E 014°17'1 0.7
2016-Apr-29 15:33N 35°57' E 014°17'0 0.4
2016-Apr-29 14:34N 35°58' E 014°18'1 1.4
2016-Apr-29 13:33N 35°58' E 014°19'1 0.6
2016-Apr-29 12:33N 35°57' E 014°19'0 0.0
2016-Apr-29 11:33N 35°57' E 014°19'0 0.0
2016-Apr-29 10:33N 35°57' E 014°19'0 0.0
2016-Apr-29 09:33N 35°57' E 014°19'1 1.3
2016-Apr-29 08:33N 35°56' E 014°18'6 5.6
2016-Apr-29 07:33N 35°51' E 014°20'6 5.7
2016-Apr-29 06:33N 35°46' E 014°23'7 6.9
2016-Apr-29 05:28N 35°46' E 014°33'3 3.3
2016-Apr-29 04:29N 35°49' E 014°35'1 0.1
2016-Apr-28 18:18N 35°48' E 014°34'1 0.7
2016-Apr-28 17:33N 35°49' E 014°34'5 5.1
2016-Apr-28 16:33N 35°54' E 014°34'3 0.3
2016-Apr-28 06:30N 35°53' E 014°30'3 2.8
2016-Apr-28 05:34N 35°55' E 014°33'3 3.1
2016-Apr-28 04:34N 35°53' E 014°36'3 2.7
2016-Apr-28 03:34N 35°50' E 014°35'0 0.0
2016-Apr-28 02:31N 35°50' E 014°36'0 0.0
2016-Apr-28 01:34N 35°50' E 014°36'0 0.0
2016-Apr-28 00:34N 35°50' E 014°36'0 0.0
2016-Apr-27 23:34N 35°50' E 014°36'0 0.0
2016-Apr-27 22:33N 35°50' E 014°36'0 0.0
2016-Apr-27 21:33N 35°50' E 014°36'0 0.0
2016-Apr-27 20:31N 35°50' E 014°36'0 0.0
2016-Apr-27 19:26N 35°50' E 014°36'0 0.0
2016-Apr-27 18:31N 35°50' E 014°36'0 0.0
2016-Apr-27 15:16N 35°50' E 014°36'0 0.0
2016-Apr-27 14:21N 35°50' E 014°36'0 0.0
2016-Apr-27 13:11N 35°50' E 014°36'0 0.0
2016-Apr-27 12:15N 35°50' E 014°36'0 0.0
2016-Apr-27 11:32N 35°50' E 014°36'0 0.0
2016-Apr-27 10:31N 35°50' E 014°36'0 0.0
2016-Apr-27 09:31N 35°50' E 014°36'0 0.0
2016-Apr-27 08:33N 35°50' E 014°36'0 0.0
2016-Apr-27 07:33N 35°50' E 014°36'0 0.0
2016-Apr-27 06:33N 35°50' E 014°36'4 3.4
2016-Apr-27 05:20N 35°51' E 014°41'3 4.4
2016-Apr-27 04:33N 35°52' E 014°45'0 0.0
2016-Apr-27 03:33N 35°52' E 014°45'0 0.0
2016-Apr-27 02:31N 35°52' E 014°45'0 0.1
2016-Apr-27 01:33N 35°52' E 014°45'4 1.5
2016-Apr-26 23:05N 35°54' E 014°49'0 0.0
2016-Apr-26 22:27N 35°54' E 014°49'0 0.0
2016-Apr-26 21:25N 35°54' E 014°49'0 0.0
2016-Apr-26 20:22N 35°54' E 014°49'0 0.0
2016-Apr-26 16:16N 35°54' E 014°49'0 0.0
2016-Apr-26 15:18N 35°54' E 014°49'0 0.0
2016-Apr-26 14:25N 35°54' E 014°49'4 0.9
2016-Apr-26 09:21N 35°51' E 014°45'  

Dump ship's entire track history